INFORMACIÓN METAR y TAF
METAR FOR LEST
ADDS - METARS form results

(2345 UTC 25 April 2019)
Data provider http://aviationweather.gov/metar/data/
 
METAR text: LEST 252330Z 28005KT 240V320 9999 SCT015 BKN026 08/08 Q1019 TEMPO 3000 SHRA SCT025TCU
Conditions at: LEST (SANTIAGO/LABACOL, ES) observed 2330 UTC 25 April 2019
Temperature: 8.0°C (46°F)
Dewpoint: 8.0°C (46°F) [RH = 100%]
Pressure (altimeter): 30.09 inches Hg (1019.0 mb)
Winds: from the W (280 degrees) at 6 MPH (5 knots; 2.6 m/s)
Visibility: 6 or more miles (10+ km)
Ceiling: 2600 feet AGL
Clouds: scattered clouds at 1500 feet AGL
broken clouds at 2600 feet AGL
Weather: no significant weather observed at this time

METAR text: LEST 252300Z 28005KT 240V350 9999 SCT015 BKN022 08/08 Q1018 TEMPO 3000 SHRA SCT025TCU
Conditions at: LEST (SANTIAGO/LABACOL, ES) observed 2300 UTC 25 April 2019
Temperature: 8.0°C (46°F)
Dewpoint: 8.0°C (46°F) [RH = 100%]
Pressure (altimeter): 30.06 inches Hg (1018.0 mb)
Winds: from the W (280 degrees) at 6 MPH (5 knots; 2.6 m/s)
Visibility: 6 or more miles (10+ km)
Ceiling: 2200 feet AGL
Clouds: scattered clouds at 1500 feet AGL
broken clouds at 2200 feet AGL
Weather: no significant weather observed at this time

Forecast for: LEST (SANTIAGO/LABACOL, ES)
Text: TAF LEST 252300Z 2600/2624 27008KT 9999 SCT030 TX12/2615Z TN06/2605Z
Forecast period: 0000 UTC 26 April 2019 to 0000 UTC 27 April 2019
Forecast type: FROM: standard forecast or significant change
Winds: from the W (270 degrees) at 9 MPH (8 knots; 4.1 m/s)
Visibility: 6 or more miles 10+ km)
Ceiling: at least 12,000 feet AGL
Clouds: scattered clouds at 3000 feet AGL
Weather: no significant weather forecast for this period
Text: PROB40
Forecast period: 0000 to 0400 UTC 26 April 2019
Forecast type: TEMPORARY: The following changes expected for less than half the time period
Visibility: 1.86 miles (2.99 km)
Ceiling: unknown
Clouds: missing
Weather: RA  (moderate rain)
Text: TEMPO 2600/2604 3000 RA
Forecast period: 0400 to 0800 UTC 26 April 2019
Forecast type: TEMPORARY: The following changes expected for less than half the time period
Visibility: 1.86 miles (2.99 km)
Ceiling: at least 12,000 feet AGL
Clouds: scattered clouds at 3000 feet AGL
Weather: SHRA  (rain showers)

 MAPA DE AEROPUERTO

 INFORMACIÓN DE PISTA
Pista 17 Longitud 10499 ft Ancho 148 ft
Elevación 1170 ft Umbral desplazado 394 ft Rumbo de pista 166
Pista 35 Longitud 10499 ft Ancho 148 ft
Elevación 1196 ft Umbral desplazado 0 ft Rumbo de pista 346

 FRECUANCIAS DEL AEROPUERTO
Tipo APP Nombre APP Frecuencia 118.2 MHZ
Tipo GND Nombre GND Frecuencia 121.7 MHZ
Tipo TWR Nombre TWR Frecuencia 118.75 MHZ

 RADIO AYUDAS DEL AEROPUERTO
Tipo NDB Nombre Santiago Frecuencia 417 KHZ
Tipo VOR-DME Nombre Santiago Frecuencia 116400 KHZ



Powered by Virtual Airlines Manager [v2.6.2]